sensor_id;sensor_type;location;lat;lon;timestamp;P1;durP1;ratioP1;P2;durP2;ratioP2
74473;SDS011;62922;-6.168;106.796;2022-08-21T00:01:10;22.33;;;10.30;;
74473;SDS011;62922;-6.168;106.796;2022-08-21T00:03:39;23.63;;;9.93;;
74473;SDS011;62922;-6.168;106.796;2022-08-21T00:06:06;25.25;;;10.35;;
74473;SDS011;62922;-6.168;106.796;2022-08-21T00:08:33;27.15;;;11.10;;
74473;SDS011;62922;-6.168;106.796;2022-08-21T00:10:59;24.23;;;11.70;;
74473;SDS011;62922;-6.168;106.796;2022-08-21T00:13:26;25.55;;;11.15;;
74473;SDS011;62922;-6.168;106.796;2022-08-21T00:15:55;25.30;;;11.32;;
74473;SDS011;62922;-6.168;106.796;2022-08-21T00:18:22;22.13;;;11.13;;
74473;SDS011;62922;-6.168;106.796;2022-08-21T00:20:48;26.92;;;10.73;;
74473;SDS011;62922;-6.168;106.796;2022-08-21T00:23:15;23.70;;;10.85;;
74473;SDS011;62922;-6.168;106.796;2022-08-21T00:25:41;24.08;;;11.07;;
74473;SDS011;62922;-6.168;106.796;2022-08-21T00:28:08;29.30;;;11.23;;
74473;SDS011;62922;-6.168;106.796;2022-08-21T00:30:35;26.25;;;11.85;;
74473;SDS011;62922;-6.168;106.796;2022-08-21T00:33:03;23.58;;;10.38;;
74473;SDS011;62922;-6.168;106.796;2022-08-21T00:35:32;27.50;;;11.15;;
74473;SDS011;62922;-6.168;106.796;2022-08-21T00:38:01;28.08;;;11.30;;
74473;SDS011;62922;-6.168;106.796;2022-08-21T00:40:34;28.98;;;11.05;;
74473;SDS011;62922;-6.168;106.796;2022-08-21T00:43:04;26.63;;;11.68;;
74473;SDS011;62922;-6.168;106.796;2022-08-21T00:45:33;25.23;;;11.10;;
74473;SDS011;62922;-6.168;106.796;2022-08-21T00:48:00;29.65;;;11.70;;
74473;SDS011;62922;-6.168;106.796;2022-08-21T00:50:27;23.13;;;10.75;;
74473;SDS011;62922;-6.168;106.796;2022-08-21T00:53:00;25.85;;;10.77;;
74473;SDS011;62922;-6.168;106.796;2022-08-21T00:55:28;21.05;;;11.15;;
74473;SDS011;62922;-6.168;106.796;2022-08-21T00:57:57;22.75;;;11.13;;
74473;SDS011;62922;-6.168;106.796;2022-08-21T01:00:28;22.48;;;11.60;;
74473;SDS011;62922;-6.168;106.796;2022-08-21T01:02:59;25.25;;;11.57;;
74473;SDS011;62922;-6.168;106.796;2022-08-21T01:05:32;25.67;;;12.30;;
74473;SDS011;62922;-6.168;106.796;2022-08-21T01:07:59;27.77;;;12.18;;
74473;SDS011;62922;-6.168;106.796;2022-08-21T01:10:25;25.45;;;12.35;;
74473;SDS011;62922;-6.168;106.796;2022-08-21T01:12:52;26.00;;;12.82;;
74473;SDS011;62922;-6.168;106.796;2022-08-21T01:15:23;31.52;;;14.00;;
74473;SDS011;62922;-6.168;106.796;2022-08-21T01:17:55;24.42;;;12.88;;
74473;SDS011;62922;-6.168;106.796;2022-08-21T01:20:22;31.50;;;13.85;;
74473;SDS011;62922;-6.168;106.796;2022-08-21T01:22:48;26.52;;;13.70;;
74473;SDS011;62922;-6.168;106.796;2022-08-21T01:25:15;26.75;;;13.25;;
74473;SDS011;62922;-6.168;106.796;2022-08-21T01:27:44;27.38;;;14.65;;
74473;SDS011;62922;-6.168;106.796;2022-08-21T01:30:16;36.67;;;13.70;;
74473;SDS011;62922;-6.168;106.796;2022-08-21T01:32:46;24.83;;;13.32;;
74473;SDS011;62922;-6.168;106.796;2022-08-21T01:35:15;26.00;;;13.45;;
74473;SDS011;62922;-6.168;106.796;2022-08-21T01:37:43;28.02;;;13.65;;
74473;SDS011;62922;-6.168;106.796;2022-08-21T01:40:10;32.05;;;14.45;;
74473;SDS011;62922;-6.168;106.796;2022-08-21T01:42:39;29.60;;;15.18;;
74473;SDS011;62922;-6.168;106.796;2022-08-21T01:45:06;28.33;;;14.55;;
74473;SDS011;62922;-6.168;106.796;2022-08-21T01:47:34;28.35;;;14.48;;
74473;SDS011;62922;-6.168;106.796;2022-08-21T01:50:03;32.08;;;17.05;;
74473;SDS011;62922;-6.168;106.796;2022-08-21T01:52:31;29.60;;;15.50;;
74473;SDS011;62922;-6.168;106.796;2022-08-21T01:54:57;29.73;;;15.80;;
74473;SDS011;62922;-6.168;106.796;2022-08-21T01:57:24;32.30;;;16.00;;
74473;SDS011;62922;-6.168;106.796;2022-08-21T01:59:53;66.38;;;20.00;;
74473;SDS011;62922;-6.168;106.796;2022-08-21T02:02:20;31.00;;;15.35;;
74473;SDS011;62922;-6.168;106.796;2022-08-21T02:04:46;29.40;;;14.77;;
74473;SDS011;62922;-6.168;106.796;2022-08-21T02:07:15;28.67;;;14.52;;
74473;SDS011;62922;-6.168;106.796;2022-08-21T02:09:41;28.17;;;15.63;;
74473;SDS011;62922;-6.168;106.796;2022-08-21T02:12:08;33.85;;;16.98;;
74473;SDS011;62922;-6.168;106.796;2022-08-21T02:14:35;34.20;;;16.52;;
74473;SDS011;62922;-6.168;106.796;2022-08-21T02:17:04;30.70;;;16.08;;
74473;SDS011;62922;-6.168;106.796;2022-08-21T02:19:31;26.35;;;14.65;;
74473;SDS011;62922;-6.168;106.796;2022-08-21T02:21:57;31.55;;;16.80;;
74473;SDS011;62922;-6.168;106.796;2022-08-21T02:24:23;30.23;;;16.27;;
74473;SDS011;62922;-6.168;106.796;2022-08-21T02:26:50;34.20;;;15.70;;
74473;SDS011;62922;-6.168;106.796;2022-08-21T02:29:16;29.40;;;15.18;;
74473;SDS011;62922;-6.168;106.796;2022-08-21T02:31:45;30.58;;;15.48;;
74473;SDS011;62922;-6.168;106.796;2022-08-21T02:34:14;33.08;;;17.17;;
74473;SDS011;62922;-6.168;106.796;2022-08-21T02:36:40;31.13;;;17.63;;
74473;SDS011;62922;-6.168;106.796;2022-08-21T02:39:07;34.40;;;17.25;;
74473;SDS011;62922;-6.168;106.796;2022-08-21T02:41:33;34.53;;;19.58;;
74473;SDS011;62922;-6.168;106.796;2022-08-21T02:43:59;35.00;;;19.80;;
74473;SDS011;62922;-6.168;106.796;2022-08-21T02:46:28;38.72;;;21.98;;
74473;SDS011;62922;-6.168;106.796;2022-08-21T02:48:55;41.13;;;22.52;;
74473;SDS011;62922;-6.168;106.796;2022-08-21T02:51:22;39.88;;;21.90;;
74473;SDS011;62922;-6.168;106.796;2022-08-21T02:53:48;40.42;;;20.23;;
74473;SDS011;62922;-6.168;106.796;2022-08-21T02:56:16;35.25;;;20.58;;
74473;SDS011;62922;-6.168;106.796;2022-08-21T02:58:46;36.38;;;19.30;;
74473;SDS011;62922;-6.168;106.796;2022-08-21T03:01:16;36.63;;;19.92;;
74473;SDS011;62922;-6.168;106.796;2022-08-21T03:03:45;34.05;;;19.02;;
74473;SDS011;62922;-6.168;106.796;2022-08-21T03:06:15;34.53;;;19.52;;
74473;SDS011;62922;-6.168;106.796;2022-08-21T03:08:45;32.55;;;20.05;;
74473;SDS011;62922;-6.168;106.796;2022-08-21T03:11:14;39.10;;;20.63;;
74473;SDS011;62922;-6.168;106.796;2022-08-21T03:13:41;38.22;;;19.75;;
74473;SDS011;62922;-6.168;106.796;2022-08-21T03:16:11;33.28;;;18.05;;
74473;SDS011;62922;-6.168;106.796;2022-08-21T03:18:37;38.70;;;19.05;;
74473;SDS011;62922;-6.168;106.796;2022-08-21T03:21:04;35.35;;;18.35;;
74473;SDS011;62922;-6.168;106.796;2022-08-21T03:23:31;37.85;;;18.73;;
74473;SDS011;62922;-6.168;106.796;2022-08-21T03:25:57;38.38;;;17.77;;
74473;SDS011;62922;-6.168;106.796;2022-08-21T03:28:24;39.17;;;18.13;;
74473;SDS011;62922;-6.168;106.796;2022-08-21T03:30:51;36.67;;;19.40;;
74473;SDS011;62922;-6.168;106.796;2022-08-21T03:33:18;37.53;;;19.90;;
74473;SDS011;62922;-6.168;106.796;2022-08-21T03:35:47;35.67;;;20.17;;
74473;SDS011;62922;-6.168;106.796;2022-08-21T03:38:17;32.95;;;18.55;;
74473;SDS011;62922;-6.168;106.796;2022-08-21T03:40:47;34.88;;;19.63;;
74473;SDS011;62922;-6.168;106.796;2022-08-21T03:43:13;36.10;;;20.73;;
74473;SDS011;62922;-6.168;106.796;2022-08-21T03:45:39;35.50;;;20.20;;
74473;SDS011;62922;-6.168;106.796;2022-08-21T03:48:08;34.17;;;19.33;;
74473;SDS011;62922;-6.168;106.796;2022-08-21T03:50:36;35.13;;;21.00;;
74473;SDS011;62922;-6.168;106.796;2022-08-21T03:53:04;30.17;;;19.27;;
74473;SDS011;62922;-6.168;106.796;2022-08-21T03:55:31;32.78;;;20.48;;
74473;SDS011;62922;-6.168;106.796;2022-08-21T03:57:58;31.85;;;20.90;;
74473;SDS011;62922;-6.168;106.796;2022-08-21T04:00:24;52.28;;;21.30;;
74473;SDS011;62922;-6.168;106.796;2022-08-21T04:02:51;43.00;;;21.38;;
74473;SDS011;62922;-6.168;106.796;2022-08-21T04:05:18;47.53;;;22.10;;
74473;SDS011;62922;-6.168;106.796;2022-08-21T04:07:55;40.08;;;21.35;;
74473;SDS011;62922;-6.168;106.796;2022-08-21T04:10:23;37.55;;;21.60;;
74473;SDS011;62922;-6.168;106.796;2022-08-21T04:12:51;34.35;;;20.48;;
74473;SDS011;62922;-6.168;106.796;2022-08-21T04:15:19;43.35;;;21.88;;
74473;SDS011;62922;-6.168;106.796;2022-08-21T04:17:46;37.85;;;21.02;;
74473;SDS011;62922;-6.168;106.796;2022-08-21T04:20:14;38.90;;;23.33;;
74473;SDS011;62922;-6.168;106.796;2022-08-21T04:22:41;35.22;;;25.10;;
74473;SDS011;62922;-6.168;106.796;2022-08-21T04:25:09;47.05;;;29.20;;
74473;SDS011;62922;-6.168;106.796;2022-08-21T04:27:37;37.53;;;22.85;;
74473;SDS011;62922;-6.168;106.796;2022-08-21T04:30:04;40.75;;;23.92;;
74473;SDS011;62922;-6.168;106.796;2022-08-21T04:32:31;35.05;;;23.33;;
74473;SDS011;62922;-6.168;106.796;2022-08-21T04:34:59;35.83;;;23.52;;
74473;SDS011;62922;-6.168;106.796;2022-08-21T04:37:29;37.63;;;22.75;;
74473;SDS011;62922;-6.168;106.796;2022-08-21T04:39:55;35.70;;;23.55;;
74473;SDS011;62922;-6.168;106.796;2022-08-21T04:42:24;33.03;;;22.88;;
74473;SDS011;62922;-6.168;106.796;2022-08-21T04:44:51;34.08;;;22.17;;
74473;SDS011;62922;-6.168;106.796;2022-08-21T04:47:17;32.92;;;21.48;;
74473;SDS011;62922;-6.168;106.796;2022-08-21T04:49:46;30.92;;;21.25;;
74473;SDS011;62922;-6.168;106.796;2022-08-21T04:52:14;31.92;;;21.10;;
74473;SDS011;62922;-6.168;106.796;2022-08-21T04:54:43;33.90;;;22.83;;
74473;SDS011;62922;-6.168;106.796;2022-08-21T04:57:11;30.88;;;21.15;;
74473;SDS011;62922;-6.168;106.796;2022-08-21T04:59:41;29.40;;;21.13;;
74473;SDS011;62922;-6.168;106.796;2022-08-21T05:02:12;33.47;;;21.80;;
74473;SDS011;62922;-6.168;106.796;2022-08-21T05:04:43;34.17;;;20.73;;
74473;SDS011;62922;-6.168;106.796;2022-08-21T05:07:17;32.75;;;21.20;;
74473;SDS011;62922;-6.168;106.796;2022-08-21T05:09:48;32.03;;;20.63;;
74473;SDS011;62922;-6.168;106.796;2022-08-21T05:12:17;29.73;;;20.58;;
74473;SDS011;62922;-6.168;106.796;2022-08-21T05:14:46;27.02;;;20.85;;
74473;SDS011;62922;-6.168;106.796;2022-08-21T05:17:13;27.55;;;20.25;;
74473;SDS011;62922;-6.168;106.796;2022-08-21T05:19:40;31.25;;;20.52;;
74473;SDS011;62922;-6.168;106.796;2022-08-21T05:22:06;32.15;;;21.90;;
74473;SDS011;62922;-6.168;106.796;2022-08-21T05:24:35;31.08;;;20.67;;
74473;SDS011;62922;-6.168;106.796;2022-08-21T05:27:01;32.45;;;20.27;;
74473;SDS011;62922;-6.168;106.796;2022-08-21T05:29:28;30.92;;;20.48;;
74473;SDS011;62922;-6.168;106.796;2022-08-21T05:31:55;30.08;;;20.15;;
74473;SDS011;62922;-6.168;106.796;2022-08-21T05:34:23;32.55;;;20.33;;
74473;SDS011;62922;-6.168;106.796;2022-08-21T05:36:49;31.85;;;19.98;;
74473;SDS011;62922;-6.168;106.796;2022-08-21T05:39:18;28.90;;;19.67;;
74473;SDS011;62922;-6.168;106.796;2022-08-21T05:41:45;35.70;;;24.20;;
74473;SDS011;62922;-6.168;106.796;2022-08-21T05:44:14;35.42;;;24.30;;
74473;SDS011;62922;-6.168;106.796;2022-08-21T05:46:40;37.58;;;26.98;;
74473;SDS011;62922;-6.168;106.796;2022-08-21T05:49:07;37.70;;;26.65;;
74473;SDS011;62922;-6.168;106.796;2022-08-21T05:51:35;35.13;;;24.85;;
74473;SDS011;62922;-6.168;106.796;2022-08-21T05:54:02;33.80;;;22.88;;
74473;SDS011;62922;-6.168;106.796;2022-08-21T05:56:29;29.63;;;20.05;;
74473;SDS011;62922;-6.168;106.796;2022-08-21T05:58:55;30.25;;;20.88;;
74473;SDS011;62922;-6.168;106.796;2022-08-21T06:01:21;29.08;;;19.95;;
74473;SDS011;62922;-6.168;106.796;2022-08-21T06:03:47;30.70;;;19.40;;
74473;SDS011;62922;-6.168;106.796;2022-08-21T06:06:14;25.92;;;18.48;;
74473;SDS011;62922;-6.168;106.796;2022-08-21T06:08:41;37.25;;;20.17;;
74473;SDS011;62922;-6.168;106.796;2022-08-21T06:11:07;31.35;;;18.95;;
74473;SDS011;62922;-6.168;106.796;2022-08-21T06:13:35;26.17;;;18.05;;
74473;SDS011;62922;-6.168;106.796;2022-08-21T06:16:23;26.80;;;17.85;;
74473;SDS011;62922;-6.168;106.796;2022-08-21T06:18:50;27.02;;;16.67;;
74473;SDS011;62922;-6.168;106.796;2022-08-21T06:21:17;26.00;;;18.27;;
74473;SDS011;62922;-6.168;106.796;2022-08-21T06:23:44;32.65;;;18.35;;
74473;SDS011;62922;-6.168;106.796;2022-08-21T06:26:11;29.00;;;17.88;;
74473;SDS011;62922;-6.168;106.796;2022-08-21T06:28:39;29.95;;;17.35;;
74473;SDS011;62922;-6.168;106.796;2022-08-21T06:33:45;24.95;;;16.85;;
74473;SDS011;62922;-6.168;106.796;2022-08-21T06:36:11;27.75;;;17.25;;
74473;SDS011;62922;-6.168;106.796;2022-08-21T06:38:38;27.33;;;17.30;;
74473;SDS011;62922;-6.168;106.796;2022-08-21T06:41:05;26.20;;;17.33;;
74473;SDS011;62922;-6.168;106.796;2022-08-21T06:43:34;48.03;;;19.30;;
74473;SDS011;62922;-6.168;106.796;2022-08-21T06:46:00;33.80;;;17.92;;
74473;SDS011;62922;-6.168;106.796;2022-08-21T06:48:27;33.05;;;18.98;;
74473;SDS011;62922;-6.168;106.796;2022-08-21T06:50:56;34.05;;;18.70;;
74473;SDS011;62922;-6.168;106.796;2022-08-21T06:53:22;24.50;;;17.08;;
74473;SDS011;62922;-6.168;106.796;2022-08-21T06:55:48;37.85;;;18.80;;
74473;SDS011;62922;-6.168;106.796;2022-08-21T06:58:15;32.20;;;18.33;;
74473;SDS011;62922;-6.168;106.796;2022-08-21T07:00:43;32.67;;;18.48;;
74473;SDS011;62922;-6.168;106.796;2022-08-21T07:03:22;33.63;;;19.67;;
74473;SDS011;62922;-6.168;106.796;2022-08-21T07:05:50;32.97;;;18.63;;
74473;SDS011;62922;-6.168;106.796;2022-08-21T07:08:17;34.15;;;18.58;;
74473;SDS011;62922;-6.168;106.796;2022-08-21T07:10:44;35.13;;;19.23;;
74473;SDS011;62922;-6.168;106.796;2022-08-21T07:13:11;33.65;;;18.38;;
74473;SDS011;62922;-6.168;106.796;2022-08-21T07:15:37;35.30;;;19.20;;
74473;SDS011;62922;-6.168;106.796;2022-08-21T07:18:04;39.40;;;20.20;;
74473;SDS011;62922;-6.168;106.796;2022-08-21T07:20:31;34.35;;;19.20;;
74473;SDS011;62922;-6.168;106.796;2022-08-21T07:22:58;38.10;;;18.45;;
74473;SDS011;62922;-6.168;106.796;2022-08-21T07:25:33;59.00;;;20.63;;
74473;SDS011;62922;-6.168;106.796;2022-08-21T07:28:00;38.00;;;19.42;;
74473;SDS011;62922;-6.168;106.796;2022-08-21T07:30:29;36.05;;;18.05;;
74473;SDS011;62922;-6.168;106.796;2022-08-21T07:32:58;41.80;;;19.08;;
74473;SDS011;62922;-6.168;106.796;2022-08-21T07:35:25;37.45;;;17.70;;
74473;SDS011;62922;-6.168;106.796;2022-08-21T07:37:53;46.63;;;18.30;;
74473;SDS011;62922;-6.168;106.796;2022-08-21T07:40:19;42.45;;;19.77;;
74473;SDS011;62922;-6.168;106.796;2022-08-21T07:42:48;38.95;;;19.52;;
74473;SDS011;62922;-6.168;106.796;2022-08-21T07:45:18;35.10;;;19.38;;
74473;SDS011;62922;-6.168;106.796;2022-08-21T07:47:46;40.10;;;20.17;;
74473;SDS011;62922;-6.168;106.796;2022-08-21T07:50:15;38.38;;;19.05;;
74473;SDS011;62922;-6.168;106.796;2022-08-21T07:52:42;41.90;;;20.00;;
74473;SDS011;62922;-6.168;106.796;2022-08-21T07:55:11;40.92;;;19.90;;
74473;SDS011;62922;-6.168;106.796;2022-08-21T07:57:42;36.75;;;17.60;;
74473;SDS011;62922;-6.168;106.796;2022-08-21T08:00:12;34.33;;;18.50;;
74473;SDS011;62922;-6.168;106.796;2022-08-21T08:02:46;35.35;;;19.88;;
74473;SDS011;62922;-6.168;106.796;2022-08-21T08:05:16;32.13;;;18.42;;
74473;SDS011;62922;-6.168;106.796;2022-08-21T08:07:43;36.95;;;19.05;;
74473;SDS011;62922;-6.168;106.796;2022-08-21T08:10:10;38.53;;;21.05;;
74473;SDS011;62922;-6.168;106.796;2022-08-21T08:12:38;40.08;;;20.48;;
74473;SDS011;62922;-6.168;106.796;2022-08-21T08:15:08;34.58;;;19.88;;
74473;SDS011;62922;-6.168;106.796;2022-08-21T08:17:38;34.10;;;20.13;;
74473;SDS011;62922;-6.168;106.796;2022-08-21T08:20:07;39.00;;;21.20;;
74473;SDS011;62922;-6.168;106.796;2022-08-21T08:22:36;36.50;;;20.38;;
74473;SDS011;62922;-6.168;106.796;2022-08-21T08:25:04;34.15;;;20.30;;
74473;SDS011;62922;-6.168;106.796;2022-08-21T08:27:32;33.53;;;20.10;;
74473;SDS011;62922;-6.168;106.796;2022-08-21T08:29:58;38.42;;;19.52;;
74473;SDS011;62922;-6.168;106.796;2022-08-21T08:32:27;34.63;;;18.75;;
74473;SDS011;62922;-6.168;106.796;2022-08-21T08:34:54;32.38;;;17.92;;
74473;SDS011;62922;-6.168;106.796;2022-08-21T08:37:20;35.95;;;18.10;;
74473;SDS011;62922;-6.168;106.796;2022-08-21T08:39:47;41.47;;;18.92;;
74473;SDS011;62922;-6.168;106.796;2022-08-21T08:42:18;35.67;;;17.95;;
74473;SDS011;62922;-6.168;106.796;2022-08-21T08:44:46;38.47;;;17.80;;
74473;SDS011;62922;-6.168;106.796;2022-08-21T08:47:16;36.97;;;17.88;;
74473;SDS011;62922;-6.168;106.796;2022-08-21T08:50:06;39.08;;;18.27;;
74473;SDS011;62922;-6.168;106.796;2022-08-21T08:52:33;39.90;;;18.45;;
74473;SDS011;62922;-6.168;106.796;2022-08-21T09:00:04;44.08;;;18.80;;
74473;SDS011;62922;-6.168;106.796;2022-08-21T09:02:39;37.70;;;18.98;;
74473;SDS011;62922;-6.168;106.796;2022-08-21T09:05:20;39.67;;;19.58;;
74473;SDS011;62922;-6.168;106.796;2022-08-21T09:10:20;43.92;;;19.48;;
74473;SDS011;62922;-6.168;106.796;2022-08-21T09:23:47;379.60;;;138.23;;
74473;SDS011;62922;-6.168;106.796;2022-08-21T09:26:44;315.10;;;123.78;;
74473;SDS011;62922;-6.168;106.796;2022-08-21T09:29:20;300.13;;;114.95;;
74473;SDS011;62922;-6.168;106.796;2022-08-21T09:31:51;225.82;;;90.03;;
74473;SDS011;62922;-6.168;106.796;2022-08-21T09:34:24;163.82;;;69.50;;
74473;SDS011;62922;-6.168;106.796;2022-08-21T09:36:56;136.23;;;53.85;;
74473;SDS011;62922;-6.168;106.796;2022-08-21T09:39:25;111.40;;;46.33;;
74473;SDS011;62922;-6.168;106.796;2022-08-21T09:42:02;89.22;;;42.10;;
74473;SDS011;62922;-6.168;106.796;2022-08-21T09:44:32;94.03;;;40.08;;
74473;SDS011;62922;-6.168;106.796;2022-08-21T09:47:10;75.53;;;35.55;;
74473;SDS011;62922;-6.168;106.796;2022-08-21T09:49:40;78.80;;;36.47;;
74473;SDS011;62922;-6.168;106.796;2022-08-21T09:52:28;65.15;;;31.55;;
74473;SDS011;62922;-6.168;106.796;2022-08-21T09:54:54;55.20;;;28.35;;
74473;SDS011;62922;-6.168;106.796;2022-08-21T09:57:26;56.55;;;27.58;;
74473;SDS011;62922;-6.168;106.796;2022-08-21T10:02:50;54.50;;;26.80;;
74473;SDS011;62922;-6.168;106.796;2022-08-21T10:07:44;42.67;;;23.67;;
74473;SDS011;62922;-6.168;106.796;2022-08-21T10:10:16;46.33;;;24.33;;
74473;SDS011;62922;-6.168;106.796;2022-08-21T10:18:28;41.78;;;22.50;;
74473;SDS011;62922;-6.168;106.796;2022-08-21T10:24:07;40.95;;;21.08;;
74473;SDS011;62922;-6.168;106.796;2022-08-21T10:31:52;37.33;;;19.40;;
74473;SDS011;62922;-6.168;106.796;2022-08-21T10:39:36;33.72;;;18.35;;
74473;SDS011;62922;-6.168;106.796;2022-08-21T10:50:25;38.55;;;17.70;;
74473;SDS011;62922;-6.168;106.796;2022-08-21T11:00:53;33.60;;;17.10;;
74473;SDS011;62922;-6.168;106.796;2022-08-21T11:03:34;33.63;;;16.65;;
74473;SDS011;62922;-6.168;106.796;2022-08-21T11:08:50;34.35;;;16.77;;
74473;SDS011;62922;-6.168;106.796;2022-08-21T11:11:34;33.58;;;16.42;;
74473;SDS011;62922;-6.168;106.796;2022-08-21T11:14:08;43.70;;;19.58;;
74473;SDS011;62922;-6.168;106.796;2022-08-21T11:16:57;42.88;;;18.75;;
74473;SDS011;62922;-6.168;106.796;2022-08-21T11:19:36;33.38;;;16.27;;
74473;SDS011;62922;-6.168;106.796;2022-08-21T11:22:10;33.13;;;16.33;;
74473;SDS011;62922;-6.168;106.796;2022-08-21T11:24:50;36.30;;;16.25;;
74473;SDS011;62922;-6.168;106.796;2022-08-21T11:27:24;58.88;;;23.88;;
74473;SDS011;62922;-6.168;106.796;2022-08-21T11:30:00;56.47;;;23.13;;
74473;SDS011;62922;-6.168;106.796;2022-08-21T11:51:00;37.13;;;16.55;;
74473;SDS011;62922;-6.168;106.796;2022-08-21T11:53:36;33.80;;;17.90;;
74473;SDS011;62922;-6.168;106.796;2022-08-21T11:56:19;34.55;;;17.73;;
74473;SDS011;62922;-6.168;106.796;2022-08-21T11:58:51;32.22;;;15.88;;
74473;SDS011;62922;-6.168;106.796;2022-08-21T12:01:43;32.72;;;16.02;;
74473;SDS011;62922;-6.168;106.796;2022-08-21T12:07:12;34.03;;;16.00;;
74473;SDS011;62922;-6.168;106.796;2022-08-21T12:09:51;32.92;;;16.17;;
74473;SDS011;62922;-6.168;106.796;2022-08-21T12:20:34;31.25;;;14.65;;
74473;SDS011;62922;-6.168;106.796;2022-08-21T12:28:11;32.80;;;18.02;;
74473;SDS011;62922;-6.168;106.796;2022-08-21T12:30:42;38.97;;;19.83;;
74473;SDS011;62922;-6.168;106.796;2022-08-21T12:38:57;34.93;;;19.93;;
74473;SDS011;62922;-6.168;106.796;2022-08-21T12:41:28;32.83;;;18.80;;
74473;SDS011;62922;-6.168;106.796;2022-08-21T12:46:56;34.63;;;20.20;;
74473;SDS011;62922;-6.168;106.796;2022-08-21T12:49:23;35.67;;;20.23;;
74473;SDS011;62922;-6.168;106.796;2022-08-21T12:54:38;31.25;;;17.65;;
74473;SDS011;62922;-6.168;106.796;2022-08-21T12:57:07;29.83;;;17.48;;
74473;SDS011;62922;-6.168;106.796;2022-08-21T12:59:43;33.33;;;17.60;;
74473;SDS011;62922;-6.168;106.796;2022-08-21T13:02:16;29.73;;;16.70;;
74473;SDS011;62922;-6.168;106.796;2022-08-21T13:04:46;30.80;;;16.27;;
74473;SDS011;62922;-6.168;106.796;2022-08-21T13:07:16;32.55;;;16.48;;
74473;SDS011;62922;-6.168;106.796;2022-08-21T13:09:53;30.38;;;16.75;;
74473;SDS011;62922;-6.168;106.796;2022-08-21T13:12:29;29.65;;;16.40;;
74473;SDS011;62922;-6.168;106.796;2022-08-21T13:15:00;29.45;;;16.15;;
74473;SDS011;62922;-6.168;106.796;2022-08-21T13:17:31;28.40;;;15.18;;
74473;SDS011;62922;-6.168;106.796;2022-08-21T13:20:04;28.60;;;14.70;;
74473;SDS011;62922;-6.168;106.796;2022-08-21T13:22:40;29.33;;;15.82;;
74473;SDS011;62922;-6.168;106.796;2022-08-21T13:25:11;25.98;;;14.45;;
74473;SDS011;62922;-6.168;106.796;2022-08-21T13:27:39;26.38;;;14.18;;
74473;SDS011;62922;-6.168;106.796;2022-08-21T13:32:34;25.35;;;13.93;;
74473;SDS011;62922;-6.168;106.796;2022-08-21T13:35:16;27.08;;;13.15;;
74473;SDS011;62922;-6.168;106.796;2022-08-21T13:37:45;24.77;;;14.20;;
74473;SDS011;62922;-6.168;106.796;2022-08-21T13:40:14;24.17;;;13.65;;
74473;SDS011;62922;-6.168;106.796;2022-08-21T13:42:44;31.25;;;13.98;;
74473;SDS011;62922;-6.168;106.796;2022-08-21T13:45:14;36.45;;;13.82;;
74473;SDS011;62922;-6.168;106.796;2022-08-21T13:47:52;31.75;;;14.23;;
74473;SDS011;62922;-6.168;106.796;2022-08-21T13:50:20;31.48;;;14.48;;
74473;SDS011;62922;-6.168;106.796;2022-08-21T13:52:54;30.27;;;14.65;;
74473;SDS011;62922;-6.168;106.796;2022-08-21T13:55:49;28.20;;;13.95;;
74473;SDS011;62922;-6.168;106.796;2022-08-21T13:58:23;26.15;;;14.23;;
74473;SDS011;62922;-6.168;106.796;2022-08-21T14:00:51;30.13;;;15.52;;
74473;SDS011;62922;-6.168;106.796;2022-08-21T14:03:32;29.30;;;14.20;;
74473;SDS011;62922;-6.168;106.796;2022-08-21T14:05:59;26.15;;;13.93;;
74473;SDS011;62922;-6.168;106.796;2022-08-21T14:10:58;25.73;;;13.73;;
74473;SDS011;62922;-6.168;106.796;2022-08-21T14:13:35;27.83;;;13.52;;
74473;SDS011;62922;-6.168;106.796;2022-08-21T14:16:14;27.40;;;13.88;;
74473;SDS011;62922;-6.168;106.796;2022-08-21T14:18:46;25.65;;;13.75;;
74473;SDS011;62922;-6.168;106.796;2022-08-21T14:21:13;25.60;;;13.20;;
74473;SDS011;62922;-6.168;106.796;2022-08-21T14:26:55;27.70;;;13.90;;
74473;SDS011;62922;-6.168;106.796;2022-08-21T14:29:24;24.88;;;13.88;;
74473;SDS011;62922;-6.168;106.796;2022-08-21T14:31:56;27.65;;;14.15;;
74473;SDS011;62922;-6.168;106.796;2022-08-21T14:34:25;27.93;;;14.20;;
74473;SDS011;62922;-6.168;106.796;2022-08-21T14:36:53;30.35;;;14.05;;
74473;SDS011;62922;-6.168;106.796;2022-08-21T14:39:24;25.85;;;13.40;;
74473;SDS011;62922;-6.168;106.796;2022-08-21T14:41:50;28.08;;;13.30;;
74473;SDS011;62922;-6.168;106.796;2022-08-21T14:44:20;22.60;;;13.15;;
74473;SDS011;62922;-6.168;106.796;2022-08-21T14:46:46;21.77;;;13.40;;
74473;SDS011;62922;-6.168;106.796;2022-08-21T14:49:13;28.70;;;14.25;;
74473;SDS011;62922;-6.168;106.796;2022-08-21T14:51:40;25.65;;;14.07;;
74473;SDS011;62922;-6.168;106.796;2022-08-21T14:54:06;26.65;;;14.18;;
74473;SDS011;62922;-6.168;106.796;2022-08-21T14:56:43;28.00;;;14.65;;
74473;SDS011;62922;-6.168;106.796;2022-08-21T14:59:09;26.65;;;14.65;;
74473;SDS011;62922;-6.168;106.796;2022-08-21T15:01:39;20.45;;;13.70;;
74473;SDS011;62922;-6.168;106.796;2022-08-21T15:04:05;26.15;;;13.80;;
74473;SDS011;62922;-6.168;106.796;2022-08-21T15:06:32;26.38;;;14.23;;
74473;SDS011;62922;-6.168;106.796;2022-08-21T15:08:58;27.48;;;14.60;;
74473;SDS011;62922;-6.168;106.796;2022-08-21T15:11:27;26.92;;;14.45;;
74473;SDS011;62922;-6.168;106.796;2022-08-21T15:13:55;23.88;;;14.10;;
74473;SDS011;62922;-6.168;106.796;2022-08-21T15:16:24;24.63;;;14.02;;
74473;SDS011;62922;-6.168;106.796;2022-08-21T15:18:52;27.13;;;14.95;;
74473;SDS011;62922;-6.168;106.796;2022-08-21T15:21:19;22.88;;;13.77;;
74473;SDS011;62922;-6.168;106.796;2022-08-21T15:23:46;19.08;;;13.82;;
74473;SDS011;62922;-6.168;106.796;2022-08-21T15:26:15;24.63;;;13.65;;
74473;SDS011;62922;-6.168;106.796;2022-08-21T15:28:42;26.40;;;14.55;;
74473;SDS011;62922;-6.168;106.796;2022-08-21T15:31:08;22.90;;;14.10;;
74473;SDS011;62922;-6.168;106.796;2022-08-21T15:33:35;27.63;;;13.98;;
74473;SDS011;62922;-6.168;106.796;2022-08-21T15:36:01;25.92;;;13.32;;
74473;SDS011;62922;-6.168;106.796;2022-08-21T15:38:28;21.55;;;12.77;;
74473;SDS011;62922;-6.168;106.796;2022-08-21T15:40:54;23.75;;;13.82;;
74473;SDS011;62922;-6.168;106.796;2022-08-21T15:45:49;24.58;;;13.73;;
74473;SDS011;62922;-6.168;106.796;2022-08-21T15:48:19;23.52;;;13.80;;
74473;SDS011;62922;-6.168;106.796;2022-08-21T15:50:49;26.15;;;13.73;;
74473;SDS011;62922;-6.168;106.796;2022-08-21T15:53:19;24.80;;;14.23;;
74473;SDS011;62922;-6.168;106.796;2022-08-21T15:55:46;26.75;;;14.38;;
74473;SDS011;62922;-6.168;106.796;2022-08-21T15:58:15;21.20;;;13.43;;
74473;SDS011;62922;-6.168;106.796;2022-08-21T16:00:42;25.90;;;14.55;;
74473;SDS011;62922;-6.168;106.796;2022-08-21T16:03:15;26.05;;;14.77;;
74473;SDS011;62922;-6.168;106.796;2022-08-21T16:05:45;26.02;;;15.63;;
74473;SDS011;62922;-6.168;106.796;2022-08-21T16:08:17;26.80;;;14.70;;
74473;SDS011;62922;-6.168;106.796;2022-08-21T16:10:44;25.80;;;14.38;;